Main page
METAR-TAF:

METAR-TAF

Airports :

Angads Airport

Oujda, Morocco

latitude: 34-47N, longitude: 001-56W, elevation: 468 m

Current weather observation

The report was made 55 minutes ago, at 05:00 UTC
Wind 4 kt from the West, varying between South/Southwest and North/Northwest
Temperature 18°C
Humidity 83%
Pressure 1017 hPa
Visibility 10 km or more
Few clouds at a height of 200 ft

METAR: GMFO 250500Z 26004KT 200V330 9999 FEW002 18/15 Q1017 NOSIG

Time: 06:55 (05:55 UTC)

Forecast

The report was made 55 minutes ago, at 05:00 UTC
Forecast valid from 25 at 06 UTC to 26 at 12 UTC
Wind 2 kt from variable directions
Visibility: 8000 m
Few clouds at a height of 200 ft
Becoming
from 25 at 14 UTC to 25 at 18 UTC
Wind 14 kt from the North
Becoming
from 25 at 19 UTC to 25 at 23 UTC
Scattered clouds at a height of 2000 ft

TAF: GMFO 250500Z 2506/2612 VRB02KT 8000 FEW002 BECMG 2514/2518 35014KT BECMG 2519/2523 SCT020

Weather observations and forecasts of more than 4000 airports (METAR and TAF reports).

The available stations are represented by yellow and red dots on the map.

Hover mouse over dot to see the name of the station.

Then click to see weather observations and forecasts.

To change the map : click on the green buttons with a black cross to zoom in, on the green button with a dash to zoom out, or on the green arrows for adjacent maps.


METAR-TAF: